Terminal Aerodrome Forecast
Issued by NWS

Home | Current Version | Previous Version | Text Only | Print | Product List | Glossary On
Versions: 1 2 3 4 5 6 7 8 9 10 11 12 13 14 15 16 17 18 19 20
000
FTUS43 KGRR 141100
TAFLAN
TAF
KLAN 141140Z 1412/1512 00000KT 5SM BR SCT100
     FM141600 26009KT P6SM VCSH BKN040
     FM142200 26011G20KT P6SM VCTS BKN040CB=

USA.gov is the U.S. government's official web portal to all federal, state and local government web resources and services.